createdAt,value
2019-01-06T00:00:32.249Z,66.87
2019-01-06T00:03:19.377Z,60.23
2019-01-06T00:06:06.872Z,61.20
2019-01-06T00:09:05.962Z,61.03
2019-01-06T00:11:56.744Z,60.57
2019-01-06T00:14:49.757Z,57.07
2019-01-06T00:17:39.677Z,55.10
2019-01-06T00:20:32.622Z,55.03
2019-01-06T00:23:18.129Z,51.73
2019-01-06T00:26:03.926Z,54.30
2019-01-06T00:28:49.891Z,55.17
2019-01-06T00:31:39.932Z,56.83
2019-01-06T00:34:25.591Z,52.17
2019-01-06T00:37:27.904Z,52.00
2019-01-06T00:40:20.618Z,48.37
2019-01-06T00:43:07.785Z,50.67
2019-01-06T00:46:04.670Z,50.00
2019-01-06T00:48:51.801Z,49.43
2019-01-06T00:51:37.260Z,49.40
2019-01-06T00:54:24.382Z,50.40
2019-01-06T00:57:14.065Z,49.23
2019-01-06T01:00:01.158Z,47.57
2019-01-06T01:02:50.796Z,51.97
2019-01-06T01:05:40.602Z,48.53
2019-01-06T01:08:26.394Z,48.23
2019-01-06T01:11:10.197Z,49.27
2019-01-06T01:13:57.361Z,54.60
2019-01-06T01:16:38.377Z,62.50
2019-01-06T01:19:34.607Z,63.57
2019-01-06T01:22:20.437Z,59.37
2019-01-06T01:25:06.278Z,60.17
2019-01-06T01:27:52.217Z,61.83
2019-01-06T01:30:37.912Z,62.33
2019-01-06T01:33:27.858Z,56.63
2019-01-06T01:36:17.661Z,52.33
2019-01-06T01:39:03.332Z,51.63
2019-01-06T01:41:49.041Z,52.00
2019-01-06T01:44:34.857Z,50.27
2019-01-06T01:47:20.751Z,50.70
2019-01-06T01:50:07.874Z,50.00
2019-01-06T01:53:00.925Z,46.47
2019-01-06T01:56:03.194Z,48.60
2019-01-06T01:58:50.385Z,48.60
2019-01-06T02:01:40.302Z,47.53
2019-01-06T02:04:25.807Z,49.63
2019-01-06T02:07:13.925Z,53.17
2019-01-06T02:09:51.645Z,54.40
2019-01-06T02:12:56.781Z,53.33
2019-01-06T02:15:42.321Z,52.47
2019-01-06T02:18:25.345Z,47.87
2019-01-06T02:21:27.822Z,48.30
2019-01-06T02:24:10.901Z,48.57
2019-01-06T02:26:58.025Z,48.60
2019-01-06T02:29:59.485Z,48.27
2019-01-06T02:33:01.550Z,44.87
2019-01-06T02:35:47.281Z,47.50
2019-01-06T02:38:33.005Z,48.60
2019-01-06T02:41:23.170Z,47.27
2019-01-06T02:44:08.662Z,49.70
2019-01-06T02:46:54.449Z,46.67
2019-01-06T02:49:50.661Z,55.20
2019-01-06T02:52:43.597Z,48.07
2019-01-06T02:55:28.841Z,46.73
2019-01-06T02:58:18.082Z,49.90
2019-01-06T03:01:08.317Z,49.30
2019-01-06T03:03:58.633Z,49.73
2019-01-06T03:06:44.630Z,46.47
2019-01-06T03:09:34.592Z,50.80
2019-01-06T03:12:20.293Z,46.97
2019-01-06T03:15:06.278Z,50.33
2019-01-06T03:17:48.149Z,53.20
2019-01-06T03:20:36.616Z,49.63
2019-01-06T03:23:21.893Z,50.13
2019-01-06T03:26:09.025Z,51.47
2019-01-06T03:28:56.177Z,55.67
2019-01-06T03:31:32.911Z,53.03
2019-01-06T03:34:20.597Z,55.47
2019-01-06T03:37:07.905Z,56.63
2019-01-06T03:39:53.777Z,58.33
2019-01-06T03:42:43.777Z,56.33
2019-01-06T03:45:36.786Z,56.17
2019-01-06T03:48:23.909Z,54.30
2019-01-06T03:51:10.630Z,52.77
2019-01-06T03:53:55.076Z,50.30
2019-01-06T03:56:45.054Z,48.63
2019-01-06T03:59:34.735Z,47.17
2019-01-06T04:02:20.017Z,46.57
2019-01-06T04:05:07.148Z,46.13
2019-01-06T04:07:54.184Z,46.33
2019-01-06T04:10:52.994Z,46.87
2019-01-06T04:13:30.773Z,46.43
2019-01-06T04:16:17.885Z,45.70
2019-01-06T04:19:05.021Z,49.70
2019-01-06T04:21:57.828Z,48.10
2019-01-06T04:24:50.775Z,43.63
2019-01-06T04:27:40.694Z,44.20
2019-01-06T04:30:38.017Z,40.70
2019-01-06T04:33:37.014Z,38.83
2019-01-06T04:36:22.801Z,39.87
2019-01-06T04:39:08.608Z,40.43
2019-01-06T04:42:10.890Z,43.23
2019-01-06T04:44:58.021Z,41.13
2019-01-06T04:48:03.169Z,41.60
2019-01-06T04:50:58.813Z,42.10
2019-01-06T04:53:45.949Z,43.37
2019-01-06T04:56:44.914Z,47.57
2019-01-06T04:59:47.004Z,45.97
2019-01-06T05:02:32.336Z,44.17
2019-01-06T05:05:25.420Z,44.60
2019-01-06T05:08:18.509Z,44.87
2019-01-06T05:11:18.077Z,44.87
2019-01-06T05:14:11.083Z,48.23
2019-01-06T05:16:53.892Z,43.57
2019-01-06T05:19:49.646Z,41.63
2019-01-06T05:22:39.452Z,40.00
2019-01-06T05:25:26.696Z,40.70
2019-01-06T05:28:12.349Z,36.90
2019-01-06T05:31:11.533Z,39.87
2019-01-06T05:34:01.566Z,39.67
2019-01-06T05:36:47.798Z,40.03
2019-01-06T05:39:34.993Z,41.43
2019-01-06T05:42:39.957Z,37.73
2019-01-06T05:45:29.656Z,42.53
2019-01-06T05:48:15.336Z,38.87
2019-01-06T05:51:20.498Z,37.03
2019-01-06T05:54:14.555Z,39.80
2019-01-06T05:57:04.452Z,37.60
2019-01-06T05:59:55.947Z,36.57
2019-01-06T06:02:41.730Z,37.17
2019-01-06T06:05:28.690Z,38.37
2019-01-06T06:08:16.757Z,38.97
2019-01-06T06:11:02.222Z,39.83
2019-01-06T06:13:48.113Z,38.97
2019-01-06T06:16:30.797Z,38.00
2019-01-06T06:19:17.932Z,38.73
2019-01-06T06:22:05.034Z,38.53
2019-01-06T06:25:01.022Z,41.33
2019-01-06T06:27:43.022Z,40.37
2019-01-06T06:30:28.833Z,41.43
2019-01-06T06:33:21.893Z,42.77
2019-01-06T06:36:09.070Z,42.37
2019-01-06T06:39:04.796Z,41.80
2019-01-06T06:41:57.618Z,43.70
2019-01-06T06:44:43.033Z,45.53
2019-01-06T06:47:30.160Z,42.23
2019-01-06T06:50:15.453Z,41.87
2019-01-06T06:53:11.757Z,43.23
2019-01-06T06:56:04.989Z,41.73
2019-01-06T06:58:58.072Z,43.73
2019-01-06T07:02:26.765Z,45.63
2019-01-06T07:05:13.893Z,43.57
2019-01-06T07:08:07.029Z,41.73
2019-01-06T07:10:54.207Z,44.77
2019-01-06T07:13:59.645Z,48.93
2019-01-06T07:17:23.106Z,46.23
2019-01-06T07:20:25.434Z,45.50
2019-01-06T07:23:12.557Z,44.30
2019-01-06T07:25:57.973Z,46.03
2019-01-06T07:28:48.007Z,44.30
2019-01-06T07:31:33.683Z,44.70
2019-01-06T07:34:35.981Z,44.60
2019-01-06T07:37:29.143Z,40.83
2019-01-06T07:40:14.726Z,44.37
2019-01-06T07:43:00.493Z,44.87
2019-01-06T07:45:57.005Z,44.20
2019-01-06T07:48:49.703Z,41.47
2019-01-06T07:51:34.976Z,41.03
2019-01-06T07:54:20.549Z,43.87
2019-01-06T07:57:06.485Z,42.43
2019-01-06T08:00:05.760Z,44.37
2019-01-06T08:03:10.681Z,44.17
2019-01-06T08:06:12.583Z,42.30
2019-01-06T08:08:59.702Z,44.77
2019-01-06T08:11:55.586Z,44.60
2019-01-06T08:15:00.585Z,44.37
2019-01-06T08:17:50.801Z,43.57
2019-01-06T08:20:47.040Z,41.47
2019-01-06T08:23:39.684Z,42.77
2019-01-06T08:26:29.450Z,43.03
2019-01-06T08:29:15.134Z,41.40
2019-01-06T08:31:54.029Z,39.23
2019-01-06T08:34:40.021Z,42.67
2019-01-06T08:37:33.092Z,41.20
2019-01-06T08:40:18.823Z,36.53
2019-01-06T08:43:18.082Z,44.50
2019-01-06T08:46:14.102Z,41.20
2019-01-06T08:49:13.349Z,33.97
2019-01-06T08:52:06.011Z,35.53
2019-01-06T08:55:02.605Z,35.80
2019-01-06T08:58:01.964Z,35.33
2019-01-06T09:00:47.821Z,36.93
2019-01-06T09:03:35.099Z,32.87
2019-01-06T09:06:21.153Z,34.33
2019-01-06T09:09:12.881Z,36.93
2019-01-06T09:12:05.865Z,30.33
2019-01-06T09:14:55.577Z,33.30
2019-01-06T09:17:48.324Z,33.40
2019-01-06T09:20:41.394Z,34.87
2019-01-06T09:23:42.717Z,32.47
2019-01-06T09:26:32.914Z,33.97
2019-01-06T09:29:19.641Z,33.30
2019-01-06T09:32:25.051Z,31.90
2019-01-06T09:35:20.906Z,33.50
2019-01-06T09:38:06.547Z,35.53
2019-01-06T09:40:52.973Z,32.67
2019-01-06T09:43:36.964Z,32.70
2019-01-06T09:46:33.050Z,30.80
2019-01-06T09:49:18.996Z,32.87
2019-01-06T09:52:04.922Z,33.47
2019-01-06T09:54:50.901Z,31.13
2019-01-06T09:57:50.165Z,30.40
2019-01-06T10:00:52.137Z,28.27
2019-01-06T10:03:37.849Z,31.27
2019-01-06T10:06:23.486Z,29.40
2019-01-06T10:09:21.296Z,28.00
2019-01-06T10:12:06.860Z,28.10
2019-01-06T10:14:52.577Z,28.00
2019-01-06T10:17:38.313Z,25.97
2019-01-06T10:20:39.592Z,28.47
2019-01-06T10:23:25.375Z,27.70
2019-01-06T10:26:15.432Z,26.40
2019-01-06T10:29:11.013Z,26.93
2019-01-06T10:31:58.469Z,25.30
2019-01-06T10:34:45.593Z,22.20
2019-01-06T10:37:31.142Z,24.33
2019-01-06T10:40:13.717Z,22.83
2019-01-06T10:42:59.545Z,24.80
2019-01-06T10:45:45.262Z,22.80
2019-01-06T10:48:35.293Z,26.40
2019-01-06T10:51:31.150Z,24.85
2019-01-06T10:54:16.433Z,24.20
2019-01-06T10:57:15.793Z,26.17
2019-01-06T11:00:01.416Z,27.80
2019-01-06T11:02:47.355Z,23.47
2019-01-06T11:05:43.497Z,25.03
2019-01-06T11:08:39.469Z,26.27
2019-01-06T11:11:41.488Z,24.00
2019-01-06T11:14:37.582Z,24.27
2019-01-06T11:17:27.542Z,21.70
2019-01-06T11:20:29.849Z,20.70
2019-01-06T11:23:22.457Z,18.33
2019-01-06T11:26:19.611Z,17.90
2019-01-06T11:29:15.892Z,21.80
2019-01-06T11:32:11.601Z,23.67
2019-01-06T11:35:13.749Z,22.73
2019-01-06T11:37:59.457Z,24.83
2019-01-06T11:40:49.121Z,25.17
2019-01-06T11:43:30.449Z,22.53
2019-01-06T11:46:11.809Z,21.07
2019-01-06T11:49:01.546Z,21.00
2019-01-06T11:51:48.771Z,20.70
2019-01-06T11:54:44.859Z,22.03
2019-01-06T11:57:34.941Z,18.07
2019-01-06T12:00:21.209Z,19.13
2019-01-06T12:03:11.188Z,18.33
2019-01-06T12:06:09.083Z,19.13
2019-01-06T12:09:05.045Z,18.90
2019-01-06T12:12:01.685Z,20.67
2019-01-06T12:14:54.664Z,17.57
2019-01-06T12:17:40.243Z,15.87
2019-01-06T12:20:30.281Z,23.87
2019-01-06T12:23:27.163Z,18.07
2019-01-06T12:26:12.945Z,17.83
2019-01-06T12:29:00.690Z,16.67
2019-01-06T12:31:47.869Z,19.53
2019-01-06T12:34:46.651Z,20.10
2019-01-06T12:37:45.601Z,19.30
2019-01-06T12:40:28.951Z,18.37
2019-01-06T12:43:30.737Z,19.63
2019-01-06T12:46:17.897Z,19.97
2019-01-06T12:49:07.669Z,20.17
2019-01-06T12:52:06.804Z,18.60
2019-01-06T12:54:59.465Z,21.30
2019-01-06T12:57:52.381Z,20.27
2019-01-06T13:00:48.149Z,20.63
2019-01-06T13:03:35.451Z,20.07
2019-01-06T13:06:20.793Z,20.60
2019-01-06T13:09:14.001Z,20.87
2019-01-06T13:12:09.957Z,20.23
2019-01-06T13:14:57.128Z,19.53
2019-01-06T13:17:43.505Z,22.13
2019-01-06T13:20:39.557Z,24.03
2019-01-06T13:23:25.466Z,22.70
2019-01-06T13:26:18.377Z,21.37
2019-01-06T13:29:08.044Z,20.33
2019-01-06T13:31:54.205Z,20.17
2019-01-06T13:34:53.457Z,23.20
2019-01-06T13:37:38.905Z,21.77
2019-01-06T13:40:26.146Z,21.03
2019-01-06T13:43:13.274Z,21.33
2019-01-06T13:46:18.647Z,23.30
2019-01-06T13:49:03.971Z,22.33
2019-01-06T13:51:57.056Z,22.03
2019-01-06T13:54:53.129Z,24.17
2019-01-06T13:57:46.373Z,22.43
2019-01-06T14:00:48.392Z,23.13
2019-01-06T14:03:47.175Z,24.30
2019-01-06T14:06:34.297Z,24.37
2019-01-06T14:09:19.617Z,25.47
2019-01-06T14:12:12.761Z,26.57
2019-01-06T14:14:58.123Z,26.27
2019-01-06T14:17:57.197Z,26.63
2019-01-06T14:20:45.796Z,26.53
2019-01-06T14:23:37.293Z,25.97
2019-01-06T14:26:39.448Z,27.10
2019-01-06T14:29:38.551Z,29.77
2019-01-06T14:32:40.031Z,27.33
2019-01-06T14:35:23.106Z,31.37
2019-01-06T14:38:08.810Z,30.53
2019-01-06T14:41:05.165Z,31.13
2019-01-06T14:43:52.443Z,30.40
2019-01-06T14:46:39.621Z,31.23
2019-01-06T14:49:26.526Z,28.70
2019-01-06T14:52:12.619Z,28.80
2019-01-06T14:55:02.371Z,31.80
2019-01-06T14:57:47.921Z,30.83
2019-01-06T15:00:40.963Z,28.97
2019-01-06T15:03:27.694Z,29.37
2019-01-06T15:06:15.114Z,29.83
2019-01-06T15:09:00.256Z,27.43
2019-01-06T15:11:44.275Z,29.90
2019-01-06T15:14:37.310Z,28.23
2019-01-06T15:17:39.217Z,29.40
2019-01-06T15:20:41.694Z,28.43
2019-01-06T15:23:28.881Z,28.07
2019-01-06T15:26:25.209Z,29.13
2019-01-06T15:29:11.113Z,29.23
2019-01-06T15:32:04.074Z,28.67
2019-01-06T15:34:50.049Z,27.60
2019-01-06T15:37:35.401Z,26.93
2019-01-06T15:40:22.782Z,23.33
2019-01-06T15:43:08.158Z,24.43
2019-01-06T15:46:10.298Z,23.93
2019-01-06T15:48:57.433Z,25.20
2019-01-06T15:51:45.069Z,23.60
2019-01-06T15:54:34.913Z,24.83
2019-01-06T15:57:20.277Z,25.30
2019-01-06T16:00:12.682Z,24.13
2019-01-06T16:02:58.861Z,24.17
2019-01-06T16:05:54.553Z,23.83
2019-01-06T16:08:41.354Z,24.37
2019-01-06T16:11:28.490Z,23.47
2019-01-06T16:14:15.613Z,24.67
2019-01-06T16:17:01.149Z,23.60
2019-01-06T16:19:46.764Z,23.80
2019-01-06T16:22:32.381Z,21.07
2019-01-06T16:25:34.521Z,23.83
2019-01-06T16:28:20.161Z,24.67
2019-01-06T16:31:05.450Z,23.70
2019-01-06T16:33:51.146Z,23.63
2019-01-06T16:36:36.953Z,25.50
2019-01-06T16:39:23.663Z,25.20
2019-01-06T16:42:16.461Z,26.57
2019-01-06T16:45:01.913Z,28.23
2019-01-06T16:47:49.029Z,24.83
2019-01-06T16:50:36.170Z,25.73
2019-01-06T16:53:34.156Z,26.27
2019-01-06T16:56:38.942Z,36.15
2019-01-06T16:59:28.664Z,25.83
2019-01-06T17:02:14.620Z,24.87
2019-01-06T17:05:01.737Z,25.30
2019-01-06T17:07:57.669Z,25.73
2019-01-06T17:10:43.253Z,27.50
2019-01-06T17:13:29.001Z,26.70
2019-01-06T17:16:31.120Z,28.03
2019-01-06T17:19:16.677Z,26.60
2019-01-06T17:22:06.319Z,25.80
2019-01-06T17:24:51.905Z,26.20
2019-01-06T17:27:36.663Z,27.20
2019-01-06T17:30:22.533Z,27.57
2019-01-06T17:33:08.254Z,26.93
2019-01-06T17:35:58.192Z,29.10
2019-01-06T17:38:44.535Z,27.90
2019-01-06T17:41:31.669Z,32.83
2019-01-06T17:44:18.852Z,25.73
2019-01-06T17:47:06.005Z,28.17
2019-01-06T17:49:55.688Z,25.37
2019-01-06T17:52:41.155Z,26.87
2019-01-06T17:55:34.116Z,26.20
2019-01-06T17:58:15.234Z,25.63
2019-01-06T18:01:08.024Z,26.83
2019-01-06T18:04:06.942Z,27.90
2019-01-06T18:07:06.805Z,27.53
2019-01-06T18:09:56.577Z,26.80
2019-01-06T18:12:49.145Z,26.90
2019-01-06T18:15:42.330Z,30.23
2019-01-06T18:18:27.939Z,28.63
2019-01-06T18:21:17.918Z,28.00
2019-01-06T18:24:03.528Z,28.80
2019-01-06T18:27:02.636Z,27.73
2019-01-06T18:29:58.679Z,26.53
2019-01-06T18:32:44.237Z,29.70
2019-01-06T18:35:43.482Z,27.93
2019-01-06T18:38:29.138Z,28.60
2019-01-06T18:41:22.153Z,28.43
2019-01-06T18:44:07.596Z,29.83
2019-01-06T18:47:13.076Z,27.00
2019-01-06T18:49:57.745Z,29.53
2019-01-06T18:52:41.476Z,28.03
2019-01-06T18:55:28.629Z,28.23
2019-01-06T18:58:24.597Z,29.97
2019-01-06T19:01:10.245Z,30.37
2019-01-06T19:03:56.041Z,28.10
2019-01-06T19:07:01.405Z,29.17
2019-01-06T19:09:47.251Z,30.37
2019-01-06T19:12:33.064Z,29.27
2019-01-06T19:15:18.630Z,28.70
2019-01-06T19:18:17.775Z,31.20
2019-01-06T19:20:58.689Z,30.87
2019-01-06T19:23:54.873Z,28.43
2019-01-06T19:26:42.003Z,28.80
2019-01-06T19:29:27.793Z,29.30
2019-01-06T19:32:13.589Z,31.57
2019-01-06T19:35:00.881Z,29.87
2019-01-06T19:37:48.001Z,29.17
2019-01-06T19:40:35.183Z,32.27
2019-01-06T19:43:25.340Z,32.63
2019-01-06T19:46:12.483Z,33.93
2019-01-06T19:48:59.629Z,31.97
2019-01-06T19:51:52.463Z,39.73
2019-01-06T19:54:38.231Z,29.77
2019-01-06T19:57:31.605Z,30.33
2019-01-06T20:00:36.868Z,29.90
2019-01-06T20:03:22.750Z,30.33
2019-01-06T20:06:15.677Z,30.47
2019-01-06T20:09:01.253Z,32.20
2019-01-06T20:11:57.317Z,33.77
2019-01-06T20:14:49.440Z,29.80
2019-01-06T20:17:42.387Z,33.17
2019-01-06T20:20:41.313Z,32.47
2019-01-06T20:23:43.314Z,29.90
2019-01-06T20:26:33.365Z,33.73
2019-01-06T20:29:23.088Z,31.90
2019-01-06T20:32:08.673Z,34.17
2019-01-06T20:35:10.993Z,35.90
2019-01-06T20:38:13.405Z,35.60
2019-01-06T20:40:59.285Z,33.63
2019-01-06T20:43:58.652Z,32.30
2019-01-06T20:46:44.417Z,34.87
2019-01-06T20:49:37.561Z,33.03
2019-01-06T20:52:23.134Z,33.23
2019-01-06T20:55:16.284Z,32.17
2019-01-06T20:58:02.410Z,33.10
2019-01-06T21:00:58.642Z,32.30
2019-01-06T21:03:51.513Z,34.03
2019-01-06T21:06:41.703Z,32.70
2019-01-06T21:09:31.340Z,34.63
2019-01-06T21:12:24.094Z,32.83
2019-01-06T21:15:10.913Z,33.40
2019-01-06T21:17:55.838Z,32.47
2019-01-06T21:20:42.964Z,32.77
2019-01-06T21:23:42.237Z,34.43
2019-01-06T21:26:42.289Z,35.90
2019-01-06T21:29:32.070Z,33.63
2019-01-06T21:32:30.989Z,36.67
2019-01-06T21:35:16.585Z,33.93
2019-01-06T21:38:00.874Z,35.70
2019-01-06T21:40:48.028Z,35.77
2019-01-06T21:43:49.993Z,33.83
2019-01-06T21:46:49.282Z,31.93
2019-01-06T21:49:28.651Z,31.63
2019-01-06T21:52:21.857Z,35.60
2019-01-06T21:55:08.981Z,31.53
2019-01-06T21:57:58.809Z,31.07
2019-01-06T22:00:54.708Z,30.80
2019-01-06T22:03:56.745Z,29.93
2019-01-06T22:06:52.682Z,29.50
2019-01-06T22:09:53.113Z,25.90
2019-01-06T22:12:45.979Z,28.67
2019-01-06T22:15:38.673Z,36.95
2019-01-06T22:18:41.345Z,27.13
2019-01-06T22:21:17.793Z,25.63
2019-01-06T22:24:11.369Z,26.73
2019-01-06T22:26:57.091Z,25.37
2019-01-06T22:29:42.979Z,25.37
2019-01-06T22:32:28.811Z,25.23
2019-01-06T22:35:14.810Z,26.20
2019-01-06T22:38:01.923Z,24.37
2019-01-06T22:40:47.272Z,24.70
2019-01-06T22:43:37.468Z,24.93
2019-01-06T22:46:36.580Z,25.33
2019-01-06T22:49:22.425Z,26.13
2019-01-06T22:52:09.771Z,25.57
2019-01-06T22:55:05.422Z,28.80
2019-01-06T22:57:51.385Z,25.50
2019-01-06T23:00:50.618Z,24.70
2019-01-06T23:04:04.576Z,25.67
2019-01-06T23:07:09.914Z,25.03
2019-01-06T23:10:14.820Z,25.37
2019-01-06T23:13:13.881Z,25.70
2019-01-06T23:16:03.519Z,24.60
2019-01-06T23:18:53.217Z,25.70
2019-01-06T23:21:55.481Z,25.73
2019-01-06T23:24:41.290Z,24.80
2019-01-06T23:27:37.484Z,26.63
2019-01-06T23:30:24.909Z,26.70
2019-01-06T23:33:14.609Z,25.07
2019-01-06T23:36:06.270Z,26.37
2019-01-06T23:39:11.541Z,26.10
2019-01-06T23:42:01.182Z,27.57
2019-01-06T23:44:46.693Z,26.50
2019-01-06T23:47:33.816Z,25.23
2019-01-06T23:50:19.523Z,26.07
2019-01-06T23:53:05.242Z,25.23
2019-01-06T23:55:50.869Z,26.93
2019-01-06T23:58:36.573Z,28.33
